Time;durP1;ratioP1;P1;durP2;ratioP2;P2;SDS_P1;SDS_P2;PMS_P1;PMS_P2;Temp;Humidity;BMP_temperature;BMP_pressure;BME280_temperature;BME280_humidity;BME280_pressure;Samples;Min_cycle;Max_cycle;Signal;HPM_P1;HPM_P2
2021/12/04 00:02:10;;;;;;;13.93;7.90;;;;;;;0.47;100.00;99474.66;4908588;29;20115;-85
2021/12/04 00:04:45;;;;;;;17.37;8.67;;;;;;;0.46;100.00;99486.78;4897602;29;20703;-85
2021/12/04 00:07:21;;;;;;;14.47;8.77;;;;;;;0.41;100.00;99493.69;4908129;29;20043;-85
2021/12/04 00:09:50;;;;;;;14.03;8.00;;;;;;;0.44;100.00;99477.25;4913229;29;20541;-84
2021/12/04 00:12:18;;;;;;;15.23;8.67;;;;;;;0.46;100.00;99467.72;4915427;29;20040;-85
2021/12/04 00:14:48;;;;;;;18.07;8.30;;;;;;;0.53;100.00;99480.72;4891874;29;20040;-86
2021/12/04 00:17:15;;;;;;;14.53;8.30;;;;;;;0.54;100.00;99459.06;4914353;29;20357;-85
2021/12/04 00:19:44;;;;;;;15.83;8.47;;;;;;;0.55;100.00;99465.13;4893504;29;20474;-86
2021/12/04 00:22:11;;;;;;;14.50;8.80;;;;;;;0.52;100.00;99458.22;4915424;29;20044;-83
2021/12/04 00:24:40;;;;;;;14.13;8.13;;;;;;;0.48;100.00;99456.47;4895047;29;20052;-84
2021/12/04 00:27:06;;;;;;;18.27;9.57;;;;;;;0.48;100.00;99459.06;4915762;29;20051;-83
2021/12/04 00:29:34;;;;;;;14.33;8.67;;;;;;;0.43;100.00;99452.13;4918914;29;20051;-84
2021/12/04 00:32:11;;;;;;;14.83;8.47;;;;;;;0.50;100.00;99453.84;4928827;29;20122;-84
2021/12/04 00:34:53;;;;;;;12.07;7.87;;;;;;;0.54;100.00;99461.66;4912000;29;20168;-84
2021/12/04 00:37:38;;;;;;;13.93;7.77;;;;;;;0.50;100.00;99453.84;4919270;29;20146;-84
2021/12/04 00:49:19;;;;;;;15.63;8.13;;;;;;;0.54;100.00;99456.47;4922050;28;20548;-85
2021/12/04 00:51:29;;;;;;;16.27;8.10;;;;;;;0.55;100.00;99455.59;4904525;29;20052;-85
2021/12/04 00:53:56;;;;;;;15.80;8.37;;;;;;;0.62;100.00;99458.22;4906430;29;20106;-84
2021/12/04 00:56:23;;;;;;;15.60;8.37;;;;;;;0.52;100.00;99459.94;4900539;29;20051;-84
2021/12/04 00:58:49;;;;;;;18.13;8.43;;;;;;;0.47;100.00;99461.66;4913018;29;20051;-83
2021/12/04 01:01:17;;;;;;;15.90;8.37;;;;;;;0.47;100.00;99459.06;4906011;29;20075;-83
2021/12/04 01:03:46;;;;;;;12.27;7.93;;;;;;;0.52;100.00;99466.00;4931113;29;20059;-84
2021/12/04 01:06:13;;;;;;;11.57;7.27;;;;;;;0.54;100.00;99453.88;4904077;29;20055;-84
2021/12/04 01:08:40;;;;;;;14.77;8.67;;;;;;;0.62;100.00;99460.81;4921097;29;20047;-84
2021/12/04 01:11:07;;;;;;;13.97;7.40;;;;;;;0.60;100.00;99450.41;4912994;29;20099;-84
2021/12/04 01:13:35;;;;;;;15.80;8.67;;;;;;;0.61;100.00;99459.09;4941314;29;20055;-84
2021/12/04 01:16:02;;;;;;;12.63;7.37;;;;;;;0.55;100.00;99453.00;4923737;29;20099;-84
2021/12/04 01:18:29;;;;;;;15.20;8.97;;;;;;;0.57;100.00;99448.66;4897194;29;20047;-83
2021/12/04 01:20:56;;;;;;;12.80;7.73;;;;;;;0.60;100.00;99453.00;4910061;29;20044;-84
2021/12/04 01:23:23;;;;;;;15.13;8.53;;;;;;;0.56;100.00;99446.94;4918922;29;20051;-86
2021/12/04 01:25:50;;;;;;;14.97;8.53;;;;;;;0.51;100.00;99455.63;4911176;29;20047;-84
2021/12/04 01:28:17;;;;;;;15.33;8.77;;;;;;;0.63;100.00;99446.94;4923259;29;20039;-85
2021/12/04 01:30:44;;;;;;;15.33;8.13;;;;;;;0.62;100.00;99448.69;4909930;29;20135;-86
2021/12/04 01:33:13;;;;;;;15.03;9.33;;;;;;;0.63;100.00;99452.13;4910209;29;20063;-85
2021/12/04 01:35:39;;;;;;;18.47;8.30;;;;;;;0.55;100.00;99453.00;4914672;29;20058;-84
2021/12/04 01:38:06;;;;;;;15.70;8.27;;;;;;;0.53;100.00;99457.34;4896969;29;20040;-85
2021/12/04 01:40:33;;;;;;;14.63;8.70;;;;;;;0.54;100.00;99447.81;4905384;29;20497;-84
2021/12/04 01:43:02;;;;;;;13.73;7.90;;;;;;;0.53;100.00;99451.28;4935765;29;20062;-84
2021/12/04 01:45:32;;;;;;;15.30;8.57;;;;;;;0.67;100.00;99448.66;4908596;29;20059;-85
2021/12/04 01:48:00;;;;;;;15.73;8.57;;;;;;;0.57;100.00;99451.25;4945221;29;20078;-84
2021/12/04 01:50:28;;;;;;;14.17;7.87;;;;;;;0.56;100.00;99459.06;4912072;29;20052;-85
2021/12/04 01:52:57;;;;;;;16.30;9.10;;;;;;;0.64;100.00;99446.94;4920186;29;20040;-84
2021/12/04 01:55:28;;;;;;;16.93;7.47;;;;;;;0.59;100.00;99451.28;4919613;29;20494;-86
2021/12/04 01:57:55;;;;;;;16.90;8.90;;;;;;;0.63;100.00;99444.34;4920108;29;20048;-85
2021/12/04 02:00:22;;;;;;;16.03;8.43;;;;;;;0.63;100.00;99450.41;4910796;29;20040;-85
2021/12/04 02:02:49;;;;;;;16.80;7.87;;;;;;;0.64;100.00;99449.53;4935520;29;20075;-84
2021/12/04 02:05:22;;;;;;;16.00;8.57;;;;;;;0.66;100.00;99439.13;4921816;29;20098;-85
2021/12/04 02:07:52;;;;;;;15.27;8.53;;;;;;;0.63;100.00;99442.59;4930210;29;20044;-84
2021/12/04 02:10:19;;;;;;;14.43;8.77;;;;;;;0.71;100.00;99440.00;4921090;29;20087;-85
2021/12/04 02:12:47;;;;;;;14.53;8.23;;;;;;;0.72;100.00;99445.19;4937117;29;20051;-84
2021/12/04 02:15:15;;;;;;;15.80;8.40;;;;;;;0.71;100.00;99434.81;4921212;29;20585;-84
2021/12/04 02:17:45;;;;;;;12.60;8.10;;;;;;;0.65;100.00;99438.28;4917910;29;20046;-85
2021/12/04 02:20:18;;;;;;;14.77;8.00;;;;;;;0.65;100.00;99427.88;4921781;29;20056;-85
2021/12/04 02:22:49;;;;;;;15.80;8.63;;;;;;;0.73;100.00;99420.06;4911532;29;20043;-84
2021/12/04 02:25:16;;;;;;;15.20;7.73;;;;;;;0.72;100.00;99431.34;4918521;29;20043;-83
2021/12/04 02:27:44;;;;;;;14.33;8.33;;;;;;;0.74;100.00;99429.59;4924782;29;20054;-84
2021/12/04 02:30:19;;;;;;;17.63;9.27;;;;;;;0.68;100.00;99427.03;4914162;29;20119;-84
2021/12/04 02:32:48;;;;;;;15.43;9.70;;;;;;;0.66;100.00;99429.59;4925498;29;20044;-84
2021/12/04 02:35:16;;;;;;;14.40;8.27;;;;;;;0.73;100.00;99431.34;4900308;29;20054;-83
2021/12/04 02:37:43;;;;;;;16.60;8.13;;;;;;;0.69;100.00;99429.63;4919560;29;20055;-84
2021/12/04 02:40:17;;;;;;;15.30;8.73;;;;;;;0.80;100.00;99424.41;4917961;29;20765;-84
2021/12/04 02:42:45;;;;;;;18.67;9.23;;;;;;;0.75;100.00;99419.19;4901028;29;20044;-85
2021/12/04 02:45:12;;;;;;;14.33;8.57;;;;;;;0.83;100.00;99416.59;4907719;29;20039;-84
2021/12/04 02:47:39;;;;;;;11.73;7.67;;;;;;;0.77;100.00;99412.28;4887199;29;20052;-85
2021/12/04 02:50:10;;;;;;;14.53;8.30;;;;;;;0.75;100.00;99411.41;4917025;29;20056;-85
2021/12/04 02:52:47;;;;;;;14.50;8.77;;;;;;;0.71;100.00;99416.63;4898204;29;20048;-84
2021/12/04 02:55:16;;;;;;;16.57;9.07;;;;;;;0.72;100.00;99411.41;4915582;29;20040;-85
2021/12/04 02:57:45;;;;;;;15.87;8.67;;;;;;;0.70;100.00;99412.28;4927221;29;20109;-85
2021/12/04 03:00:19;;;;;;;15.17;7.83;;;;;;;0.75;100.00;99403.59;4914268;29;20413;-85
2021/12/04 03:02:46;;;;;;;18.42;9.65;;;;;;;0.71;100.00;99403.63;4895588;29;20044;-85
2021/12/04 03:05:13;;;;;;;16.30;9.00;;;;;;;0.79;100.00;99409.69;4907331;29;20133;-84
2021/12/04 03:07:40;;;;;;;13.00;7.97;;;;;;;0.82;100.00;99400.13;4906283;29;20044;-86
2021/12/04 03:10:08;;;;;;;15.60;8.80;;;;;;;0.80;100.00;99403.59;4929933;28;20047;-87
2021/12/04 03:12:36;;;;;;;15.17;8.67;;;;;;;0.83;100.00;99401.00;4906132;29;20048;-86
2021/12/04 03:15:04;;;;;;;14.37;8.80;;;;;;;0.80;100.00;99396.66;4918088;28;20047;-87
2021/12/04 03:17:30;;;;;;;18.00;9.83;;;;;;;0.83;100.00;99390.59;4919598;29;20047;-87
2021/12/04 03:19:57;;;;;;;13.57;7.90;;;;;;;0.76;100.00;99394.09;4901622;29;20562;-87
2021/12/04 03:22:24;;;;;;;15.20;8.93;;;;;;;0.84;100.00;99385.41;4909569;29;20123;-87
2021/12/04 03:24:51;;;;;;;18.37;8.63;;;;;;;0.79;100.00;99391.47;4923033;29;20148;-87
2021/12/04 03:27:19;;;;;;;15.73;9.47;;;;;;;0.84;100.00;99388.00;4917796;28;20575;-87
2021/12/04 03:29:49;;;;;;;16.13;8.90;;;;;;;0.86;100.00;99397.53;4933941;28;20043;-87
2021/12/04 03:43:00;;;;;;;16.93;9.37;;;;;;;0.85;100.00;99396.69;4915416;29;20055;-87
2021/12/04 03:45:27;;;;;;;20.67;9.90;;;;;;;0.74;100.00;99391.47;4910146;29;20051;-86
2021/12/04 03:48:03;;;;;;;17.97;9.60;;;;;;;0.79;100.00;99397.53;4914978;29;21732;-87
2021/12/04 03:50:31;;;;;;;16.27;10.53;;;;;;;0.82;100.00;99388.88;4902356;29;20052;-88
2021/12/04 03:52:58;;;;;;;14.07;8.97;;;;;;;0.77;100.00;99390.63;4920878;29;20047;-86
2021/12/04 03:55:25;;;;;;;17.13;8.70;;;;;;;0.83;100.00;99390.59;4929152;29;20039;-86
2021/12/04 03:57:52;;;;;;;14.93;9.37;;;;;;;0.88;100.00;99388.88;4915441;29;20067;-86
2021/12/04 04:00:20;;;;;;;14.67;9.07;;;;;;;0.91;100.00;99395.78;4900676;29;20043;-87
2021/12/04 04:02:46;;;;;;;15.77;9.37;;;;;;;0.85;100.00;99391.47;4913931;29;20052;-86
2021/12/04 04:05:13;;;;;;;14.93;8.90;;;;;;;0.81;100.00;99392.34;4920320;29;20051;-86
2021/12/04 04:07:40;;;;;;;15.90;10.07;;;;;;;0.81;100.00;99382.81;4919068;29;20043;-86
2021/12/04 04:10:07;;;;;;;14.33;8.83;;;;;;;0.83;100.00;99388.84;4919391;29;20047;-87
2021/12/04 04:12:34;;;;;;;16.33;9.70;;;;;;;0.85;100.00;99383.69;4926769;29;20173;-86
2021/12/04 04:15:01;;;;;;;13.87;9.10;;;;;;;0.92;100.00;99382.78;4917663;29;20046;-86
2021/12/04 04:17:31;;;;;;;16.70;9.47;;;;;;;0.90;100.00;99384.50;4919069;29;20056;-85
2021/12/04 04:19:58;;;;;;;16.20;9.37;;;;;;;0.92;100.00;99376.72;4910535;29;20036;-86
2021/12/04 04:22:25;;;;;;;18.03;9.67;;;;;;;0.83;100.00;99381.06;4908230;29;20043;-85
2021/12/04 04:24:51;;;;;;;16.77;9.43;;;;;;;0.80;100.00;99381.06;4905071;29;20506;-87
2021/12/04 04:27:18;;;;;;;16.00;8.93;;;;;;;0.79;100.00;99378.47;4928282;29;20044;-85
2021/12/04 04:29:45;;;;;;;16.40;9.33;;;;;;;0.88;100.00;99377.59;4903887;29;20039;-86
2021/12/04 04:32:11;;;;;;;15.43;8.80;;;;;;;0.86;100.00;99367.22;4920358;29;20043;-86
2021/12/04 04:34:38;;;;;;;17.13;9.63;;;;;;;0.87;100.00;99373.28;4899332;29;20052;-85
2021/12/04 04:40:10;;;;;;;18.33;10.07;;;;;;;0.88;100.00;99368.06;4931550;29;20047;-84
2021/12/04 05:12:48;;;;;;;15.57;8.33;;;;;;;0.77;100.00;99359.44;4884437;29;20044;-83
2021/12/04 05:15:35;;;;;;;14.97;8.37;;;;;;;0.78;100.00;99366.34;4882764;29;20501;-83
2021/12/04 05:18:13;;;;;;;15.30;9.03;;;;;;;0.83;100.00;99362.00;4913826;29;20048;-82
2021/12/04 05:20:40;;;;;;;15.73;9.27;;;;;;;0.83;100.00;99364.59;4892887;29;20604;-83
2021/12/04 05:23:10;;;;;;;14.30;8.17;;;;;;;0.83;100.00;99362.84;4896091;29;20541;-83
2021/12/04 05:25:37;;;;;;;14.67;9.53;;;;;;;0.83;100.00;99354.19;4891107;29;20377;-84
2021/12/04 05:28:05;;;;;;;14.93;9.00;;;;;;;0.84;100.00;99361.13;4906540;29;20046;-83
2021/12/04 05:30:31;;;;;;;14.47;8.87;;;;;;;0.83;100.00;99352.47;4915965;29;20044;-83
2021/12/04 05:32:58;;;;;;;17.23;9.63;;;;;;;0.89;100.00;99343.78;4900189;29;20079;-83
2021/12/04 05:35:26;;;;;;;16.73;9.27;;;;;;;0.86;100.00;99351.59;4890361;29;20048;-82
2021/12/04 05:37:53;;;;;;;16.33;10.13;;;;;;;0.89;100.00;99345.53;4889791;29;20127;-82
2021/12/04 05:40:20;;;;;;;17.00;9.43;;;;;;;0.88;100.00;99339.47;4864291;29;20047;-82
2021/12/04 05:42:46;;;;;;;16.83;9.40;;;;;;;0.92;100.00;99337.72;4890529;29;20092;-82
2021/12/04 05:45:20;;;;;;;15.70;9.30;;;;;;;0.91;100.00;99341.19;4873516;29;20051;-82
2021/12/04 05:48:05;;;;;;;15.02;9.50;;;;;;;0.84;100.00;99338.63;4904009;29;20046;-83
2021/12/04 05:51:19;;;;;;;15.53;9.50;;;;;;;0.84;100.00;99338.63;4891037;29;20055;-83
2021/12/04 05:53:39;;;;;;;17.37;9.30;;;;;;;0.87;100.00;99336.88;4886412;29;20103;-83
2021/12/04 05:56:09;;;;;;;17.45;9.27;;;;;;;0.82;100.00;99340.34;4893162;29;20048;-83
2021/12/04 05:58:39;;;;;;;17.40;9.27;;;;;;;0.82;100.00;99342.06;4887301;29;20052;-82
2021/12/04 06:01:09;;;;;;;17.77;9.83;;;;;;;0.86;100.00;99338.59;4896973;29;20048;-82
2021/12/04 06:03:35;;;;;;;19.23;11.10;;;;;;;0.86;100.00;99333.41;4878504;29;20707;-82
2021/12/04 06:06:03;;;;;;;17.20;9.13;;;;;;;0.89;100.00;99328.19;4909890;29;20416;-83
2021/12/04 06:08:32;;;;;;;17.47;9.60;;;;;;;0.90;100.00;99334.25;4897250;29;20059;-83
2021/12/04 06:10:59;;;;;;;17.23;9.70;;;;;;;0.89;100.00;99328.19;4884725;29;20044;-82
2021/12/04 06:13:27;;;;;;;15.93;9.60;;;;;;;0.89;100.00;99327.31;4897680;29;20063;-82
2021/12/04 06:15:56;;;;;;;18.90;9.13;;;;;;;0.93;100.00;99326.47;4898087;29;20056;-82
2021/12/04 06:18:23;;;;;;;17.27;9.53;;;;;;;1.01;100.00;99332.47;4899900;29;20052;-82
2021/12/04 06:23:36;;;;;;;16.07;9.63;;;;;;;0.92;100.00;99330.78;4895873;29;20052;-82
2021/12/04 06:26:06;;;;;;;19.10;9.70;;;;;;;0.93;100.00;99334.25;4889732;29;20066;-83
2021/12/04 06:28:33;;;;;;;15.53;9.33;;;;;;;0.95;100.00;99338.59;4881806;29;20044;-82
2021/12/04 06:31:00;;;;;;;18.27;9.73;;;;;;;0.96;100.00;99342.03;4895524;29;20092;-82
2021/12/04 06:33:28;;;;;;;16.27;10.07;;;;;;;0.96;100.00;99345.50;4900191;29;20461;-83
2021/12/04 06:35:54;;;;;;;15.60;9.07;;;;;;;0.98;100.00;99335.09;4886211;29;20131;-83
2021/12/04 06:38:21;;;;;;;16.20;8.70;;;;;;;0.96;100.00;99345.50;4898738;29;20051;-83
2021/12/04 06:40:49;;;;;;;15.67;9.17;;;;;;;0.94;100.00;99347.25;4897366;29;20059;-81
2021/12/04 06:43:16;;;;;;;16.90;9.50;;;;;;;0.94;100.00;99346.38;4902760;29;20044;-83
2021/12/04 06:45:47;;;;;;;15.67;9.20;;;;;;;0.99;100.00;99353.28;4907164;29;20558;-82
2021/12/04 06:48:18;;;;;;;20.00;10.33;;;;;;;0.97;100.00;99356.78;4902845;29;20050;-82
2021/12/04 06:50:59;;;;;;;17.43;9.93;;;;;;;1.07;100.00;99348.06;4902204;29;20047;-82
2021/12/04 06:56:15;;;;;;;16.17;9.40;;;;;;;1.06;100.00;99348.94;4903432;29;20070;-82
2021/12/04 06:58:42;;;;;;;16.03;9.97;;;;;;;1.07;100.00;99351.53;4897519;29;20471;-82
2021/12/04 07:01:10;;;;;;;19.83;10.57;;;;;;;1.00;100.00;99362.81;4898407;29;20533;-83
2021/12/04 07:03:38;;;;;;;17.17;9.83;;;;;;;1.06;100.00;99357.59;4874867;29;20036;-83
2021/12/04 07:06:05;;;;;;;16.07;10.07;;;;;;;1.03;100.00;99357.63;4893956;29;20044;-82
2021/12/04 07:08:32;;;;;;;17.47;10.07;;;;;;;1.02;100.00;99357.63;4890565;29;20545;-82
2021/12/04 07:11:04;;;;;;;16.77;10.60;;;;;;;1.10;100.00;99356.75;4881223;29;20131;-82
2021/12/04 07:13:31;;;;;;;16.97;10.10;;;;;;;1.09;100.00;99357.63;4903868;29;20055;-82
2021/12/04 07:16:03;;;;;;;16.97;10.77;;;;;;;1.05;100.00;99361.09;4902321;29;20040;-83
2021/12/04 07:18:31;;;;;;;15.90;10.63;;;;;;;1.12;100.00;99362.78;4885397;29;20052;-82
2021/12/04 07:20:57;;;;;;;18.70;10.50;;;;;;;1.10;100.00;99354.16;4889751;29;20064;-82
2021/12/04 07:23:24;;;;;;;25.93;16.60;;;;;;;1.15;100.00;99361.91;4907384;29;20060;-82
2021/12/04 07:25:50;;;;;;;18.20;11.43;;;;;;;1.10;100.00;99361.94;4899321;29;20057;-82
2021/12/04 07:28:17;;;;;;;16.80;9.43;;;;;;;1.17;100.00;99359.31;4899417;29;20051;-81
2021/12/04 07:30:44;;;;;;;20.23;10.97;;;;;;;1.20;100.00;99359.31;4897704;29;20096;-82
2021/12/04 07:33:11;;;;;;;17.87;10.87;;;;;;;1.19;100.00;99349.78;4868970;29;20499;-83
2021/12/04 07:35:38;;;;;;;21.40;11.60;;;;;;;1.14;100.00;99357.59;4913622;29;20071;-82
2021/12/04 07:38:10;;;;;;;16.80;10.73;;;;;;;1.15;100.00;99351.50;4887720;29;20132;-81
2021/12/04 07:40:38;;;;;;;19.20;11.97;;;;;;;1.17;100.00;99354.09;4882520;29;20084;-81
2021/12/04 07:43:05;;;;;;;19.47;11.83;;;;;;;1.17;100.00;99361.91;4896058;29;20063;-81
2021/12/04 07:45:32;;;;;;;20.73;11.27;;;;;;;1.22;100.00;99355.81;4897575;29;20055;-82
2021/12/04 07:47:58;;;;;;;24.13;12.90;;;;;;;1.20;100.00;99365.38;4895836;29;20040;-82
2021/12/04 07:50:25;;;;;;;19.67;11.43;;;;;;;1.15;100.00;99364.50;4891451;29;20051;-81
2021/12/04 07:52:52;;;;;;;24.20;11.67;;;;;;;1.22;100.00;99373.16;4881304;29;20040;-82
2021/12/04 07:55:19;;;;;;;21.30;11.43;;;;;;;1.27;100.00;99368.81;4908010;29;20052;-81
2021/12/04 07:57:46;;;;;;;20.17;11.77;;;;;;;1.28;100.00;99368.81;4909076;29;20043;-82
2021/12/04 08:00:16;;;;;;;17.83;10.43;;;;;;;1.25;100.00;99374.00;4884342;29;20067;-82
2021/12/04 08:02:42;;;;;;;22.20;12.60;;;;;;;1.23;100.00;99374.91;4902517;29;20107;-83
2021/12/04 08:05:11;;;;;;;20.13;11.83;;;;;;;1.16;100.00;99376.66;4875836;29;20048;-81
2021/12/04 08:07:38;;;;;;;20.77;12.37;;;;;;;1.17;100.00;99369.69;4886974;29;20407;-81
2021/12/04 08:10:13;;;;;;;22.90;13.33;;;;;;;1.18;100.00;99366.22;4882921;29;20054;-81
2021/12/04 08:12:41;;;;;;;22.67;12.13;;;;;;;1.23;100.00;99369.69;4896965;29;20048;-80
2021/12/04 08:15:10;;;;;;;22.00;12.07;;;;;;;1.21;100.00;99374.91;4901720;29;20133;-81
2021/12/04 08:17:39;;;;;;;21.77;12.20;;;;;;;1.25;100.00;99375.75;4901519;29;20103;-82
2021/12/04 08:20:06;;;;;;;18.70;11.80;;;;;;;1.20;100.00;99374.91;4906969;29;20131;-81
2021/12/04 08:22:34;;;;;;;25.40;13.00;;;;;;;1.36;100.00;99376.59;4901278;29;20410;-83
2021/12/04 08:25:04;;;;;;;18.70;11.53;;;;;;;1.26;100.00;99382.69;4908773;29;20047;-82
2021/12/04 08:27:35;;;;;;;21.98;13.43;;;;;;;1.25;100.00;99381.81;4902554;29;20080;-81
2021/12/04 08:30:06;;;;;;;21.13;11.93;;;;;;;1.27;100.00;99387.91;4915317;29;20031;-80
2021/12/04 08:32:34;;;;;;;23.27;12.40;;;;;;;1.25;100.00;99384.41;4897888;29;20052;-84
2021/12/04 08:35:02;;;;;;;22.80;12.83;;;;;;;1.36;100.00;99387.88;4906407;29;20058;-83
2021/12/04 08:37:29;;;;;;;25.40;12.93;;;;;;;1.32;100.00;99393.06;4898241;29;20062;-83
2021/12/04 08:39:57;;;;;;;20.60;12.73;;;;;;;1.27;100.00;99385.31;4889667;29;20048;-82
2021/12/04 08:42:26;;;;;;;23.37;13.03;;;;;;;1.28;100.00;99386.16;4902196;29;20138;-83
2021/12/04 08:44:54;;;;;;;24.43;13.93;;;;;;;1.32;100.00;99391.34;4897548;29;20051;-84
2021/12/04 08:47:25;;;;;;;22.20;13.33;;;;;;;1.33;100.00;99392.19;4881445;29;20696;-85
2021/12/04 08:49:52;;;;;;;22.63;12.43;;;;;;;1.36;100.00;99397.41;4890389;29;20044;-84
2021/12/04 08:52:19;;;;;;;24.20;12.90;;;;;;;1.38;100.00;99400.88;4880649;29;20466;-84
2021/12/04 08:54:47;;;;;;;22.20;12.63;;;;;;;1.40;100.00;99404.31;4895906;29;20050;-84
2021/12/04 08:57:14;;;;;;;23.80;13.03;;;;;;;1.31;100.00;99394.81;4896491;29;20051;-83
2021/12/04 08:59:41;;;;;;;21.60;12.47;;;;;;;1.41;100.00;99400.84;4879807;29;20085;-83
2021/12/04 09:02:11;;;;;;;21.60;12.70;;;;;;;1.44;100.00;99402.59;4893772;29;20128;-83
2021/12/04 09:04:40;;;;;;;21.10;11.77;;;;;;;1.50;100.00;99400.81;4894062;29;20076;-82
2021/12/04 09:07:07;;;;;;;23.10;13.37;;;;;;;1.44;100.00;99402.59;4894340;29;20080;-81
2021/12/04 09:09:34;;;;;;;22.53;13.33;;;;;;;1.45;100.00;99394.78;4896407;29;20043;-84
2021/12/04 09:12:19;;;;;;;22.13;12.90;;;;;;;1.46;100.00;99390.44;4897627;29;20058;-82
2021/12/04 09:14:46;;;;;;;22.80;12.03;;;;;;;1.45;100.00;99393.91;4893560;29;20044;-82
2021/12/04 09:17:14;;;;;;;20.23;12.03;;;;;;;1.53;100.00;99394.75;4879094;29;20052;-82
2021/12/04 09:19:44;;;;;;;23.07;13.20;;;;;;;1.57;100.00;99394.69;4899813;29;20040;-84
2021/12/04 09:22:16;;;;;;;22.43;13.07;;;;;;;1.59;100.00;99395.56;4880108;29;20100;-83
2021/12/04 09:25:00;;;;;;;23.40;13.17;;;;;;;1.63;100.00;99402.50;4900959;29;20043;-83
2021/12/04 09:30:11;;;;;;;23.77;12.70;;;;;;;1.61;100.00;99404.25;4916999;29;20028;-83
2021/12/04 09:33:06;;;;;;;23.73;13.47;;;;;;;1.66;100.00;99412.88;4918474;29;20064;-82
2021/12/04 09:36:03;;;;;;;25.35;12.85;;;;;;;1.67;100.00;99408.53;4902364;29;20107;-84
2021/12/04 10:03:34;;;;;;;23.87;12.70;;;;;;;1.82;100.00;99395.44;4905064;29;20040;-80
2021/12/04 10:14:57;;;;;;;21.70;12.47;;;;;;;1.91;100.00;99384.13;4901317;29;20052;-79
2021/12/04 10:17:50;;;;;;;23.20;13.17;;;;;;;1.92;100.00;99378.03;4904804;29;20052;-80
2021/12/04 10:33:54;;;;;;;24.00;13.13;;;;;;;2.01;100.00;99362.34;4896133;29;20058;-83
2021/12/04 10:36:31;;;;;;;25.33;13.47;;;;;;;2.04;100.00;99353.66;4908128;29;20474;-81
2021/12/04 10:38:58;;;;;;;26.40;14.60;;;;;;;2.02;100.00;99350.19;4902391;29;20113;-83
2021/12/04 10:41:43;;;;;;;28.50;15.07;;;;;;;2.05;100.00;99343.22;4921096;29;20038;-82
2021/12/04 10:44:20;;;;;;;25.27;13.00;;;;;;;2.08;100.00;99344.94;4904277;29;20048;-83
2021/12/04 10:46:58;;;;;;;28.87;14.03;;;;;;;2.08;100.00;99351.00;4921972;29;20069;-81
2021/12/04 10:49:29;;;;;;;23.87;13.73;;;;;;;2.08;100.00;99351.00;4904619;29;20040;-82
2021/12/04 10:52:02;;;;;;;27.30;13.53;;;;;;;2.10;100.00;99354.47;4912512;29;20115;-82
2021/12/04 10:54:33;;;;;;;26.67;13.30;;;;;;;2.07;100.00;99338.84;4908608;29;20510;-81
2021/12/04 11:03:04;;;;;;;25.90;13.23;;;;;;;2.07;100.00;99336.25;4874365;29;20066;-83
2021/12/04 11:41:35;;;;;;;24.70;12.87;;;;;;;2.31;100.00;99282.22;4898613;29;20036;-80
2021/12/04 11:44:06;;;;;;;30.03;13.70;;;;;;;2.28;100.00;99290.06;4900089;29;20066;-82
2021/12/04 11:46:43;;;;;;;25.90;15.43;;;;;;;2.30;100.00;99283.09;4895910;29;20497;-80
2021/12/04 11:49:20;;;;;;;26.33;14.73;;;;;;;2.37;100.00;99287.38;4895865;29;20542;-81
2021/12/04 11:51:57;;;;;;;34.10;15.87;;;;;;;2.37;100.00;99290.00;4898164;29;20060;-79
2021/12/04 11:54:31;;;;;;;25.13;14.60;;;;;;;2.42;100.00;99285.56;4892872;29;20044;-81
2021/12/04 11:57:07;;;;;;;27.30;13.20;;;;;;;2.40;100.00;99282.13;4910640;29;20071;-79
2021/12/04 11:59:36;;;;;;;26.17;13.70;;;;;;;2.34;100.00;99288.25;4899158;29;20046;-80
2021/12/04 12:02:05;;;;;;;29.13;14.07;;;;;;;2.39;100.00;99286.47;4895511;29;20048;-79
2021/12/04 12:04:38;;;;;;;23.53;13.33;;;;;;;2.39;100.00;99286.47;4873096;29;20134;-82
2021/12/04 12:07:25;;;;;;;26.00;14.00;;;;;;;2.41;100.00;99271.69;4882006;29;20064;-80
2021/12/04 12:10:04;;;;;;;25.20;13.67;;;;;;;2.41;100.00;99273.44;4912358;29;20067;-81
2021/12/04 12:12:34;;;;;;;33.93;18.10;;;;;;;2.56;100.00;99270.66;4904698;29;20060;-79
2021/12/04 12:15:15;;;;;;;24.73;14.00;;;;;;;2.52;100.00;99277.66;4911017;29;20084;-80
2021/12/04 12:17:43;;;;;;;29.20;13.63;;;;;;;2.46;100.00;99280.34;4901315;29;20044;-80
2021/12/04 12:20:19;;;;;;;25.77;13.60;;;;;;;2.43;100.00;99279.47;4903725;29;20119;-82
2021/12/04 12:22:54;;;;;;;20.73;12.07;;;;;;;2.37;100.00;99277.81;4900534;29;20048;-79
2021/12/04 12:25:54;;;;;;;23.80;13.33;;;;;;;2.46;100.00;99282.06;4887118;29;20090;-81
2021/12/04 12:37:29;;;;;;;27.93;15.13;;;;;;;2.29;100.00;99271.81;4906973;29;20509;-79
2021/12/04 12:40:06;;;;;;;26.43;14.03;;;;;;;2.30;100.00;99276.16;4900869;29;20076;-80
2021/12/04 12:42:49;;;;;;;27.60;13.17;;;;;;;2.44;100.00;99279.50;4901279;29;20060;-78
2021/12/04 12:45:47;;;;;;;23.57;12.77;;;;;;;2.40;100.00;99267.34;4908950;29;20056;-80
2021/12/04 12:48:26;;;;;;;28.33;14.63;;;;;;;2.22;100.00;99267.53;4923459;29;20120;-78
2021/12/04 12:51:10;;;;;;;27.83;15.10;;;;;;;2.30;100.00;99267.47;4903045;29;20172;-81
2021/12/04 12:54:33;;;;;;;26.87;14.73;;;;;;;2.25;100.00;99272.69;4889779;29;20170;-78
2021/12/04 12:57:15;;;;;;;25.50;13.90;;;;;;;2.22;100.00;99272.75;4903002;29;20047;-80
2021/12/04 13:11:56;;;;;;;30.57;16.43;;;;;;;2.18;100.00;99263.22;4918798;29;20046;-78
2021/12/04 13:14:35;;;;;;;25.43;14.33;;;;;;;2.18;100.00;99253.66;4907151;29;20044;-79
2021/12/04 13:17:12;;;;;;;33.30;18.13;;;;;;;2.05;100.00;99252.06;4871146;29;20108;-78
2021/12/04 13:19:48;;;;;;;33.27;16.33;;;;;;;2.06;100.00;99253.78;4901428;29;20112;-80
2021/12/04 13:22:21;;;;;;;32.60;18.07;;;;;;;2.01;100.00;99249.47;4886619;29;20276;-82
2021/12/04 13:24:57;;;;;;;26.47;15.23;;;;;;;1.92;100.00;99243.47;4905264;29;20072;-79
2021/12/04 13:30:07;;;;;;;27.83;15.73;;;;;;;2.06;100.00;99248.56;4904425;29;21118;-80
2021/12/04 13:32:43;;;;;;;27.07;14.80;;;;;;;1.99;100.00;99257.31;4892316;29;20052;-80
2021/12/04 13:35:20;;;;;;;29.40;14.40;;;;;;;1.99;100.00;99244.28;4890938;29;20048;-80
2021/12/04 13:37:55;;;;;;;28.83;15.33;;;;;;;2.04;100.00;99259.88;4906376;29;20051;-81
2021/12/04 13:40:28;;;;;;;26.17;15.00;;;;;;;2.08;100.00;99265.03;4874018;29;20051;-79
2021/12/04 13:42:57;;;;;;;21.57;12.77;;;;;;;2.07;100.00;99267.66;4915074;29;20234;-80
2021/12/04 13:45:24;;;;;;;26.03;15.00;;;;;;;2.06;100.00;99264.19;4892477;29;20074;-81
2021/12/04 13:48:01;;;;;;;24.03;13.63;;;;;;;2.10;100.00;99265.00;4896743;29;20043;-79
2021/12/04 13:53:26;;;;;;;24.35;13.98;;;;;;;2.12;100.00;99273.72;4903071;29;20047;-81
2021/12/04 13:56:00;;;;;;;21.67;11.97;;;;;;;2.05;100.00;99266.81;4869995;29;20053;-79
2021/12/04 13:58:28;;;;;;;23.00;12.20;;;;;;;2.04;100.00;99268.56;4895439;29;20060;-80
2021/12/04 14:01:01;;;;;;;26.87;13.57;;;;;;;2.02;100.00;99275.53;4900325;29;20051;-80
2021/12/04 14:03:31;;;;;;;22.40;12.23;;;;;;;1.93;100.00;99265.16;4892769;29;20155;-80
2021/12/04 14:05:58;;;;;;;20.63;12.07;;;;;;;1.98;100.00;99273.81;4899536;29;20051;-79
2021/12/04 14:08:27;;;;;;;22.63;12.63;;;;;;;1.98;100.00;99269.47;4876158;29;20055;-80
2021/12/04 14:10:54;;;;;;;25.93;14.53;;;;;;;2.02;100.00;99265.13;4896791;29;20617;-80
2021/12/04 14:13:24;;;;;;;24.40;12.63;;;;;;;2.00;100.00;99264.22;4896911;29;20051;-80
2021/12/04 14:15:55;;;;;;;22.73;12.63;;;;;;;1.93;100.00;99271.25;4882783;29;20056;-80
2021/12/04 14:18:27;;;;;;;28.08;13.48;;;;;;;1.89;100.00;99274.75;4899915;29;20047;-81
2021/12/04 14:21:00;;;;;;;24.13;13.97;;;;;;;2.01;100.00;99273.78;4881423;29;20048;-80
2021/12/04 14:23:31;;;;;;;24.77;13.50;;;;;;;1.99;100.00;99283.34;4895763;29;20056;-80
2021/12/04 14:26:03;;;;;;;24.03;12.60;;;;;;;1.88;100.00;99274.75;4888651;29;20048;-80
2021/12/04 14:28:38;;;;;;;25.40;14.30;;;;;;;1.87;100.00;99280.84;4889549;29;20116;-80
2021/12/04 14:31:05;;;;;;;22.97;12.73;;;;;;;1.83;100.00;99274.78;4901233;29;20097;-80
2021/12/04 14:33:36;;;;;;;27.27;14.33;;;;;;;1.79;100.00;99269.63;4894049;29;20183;-80
2021/12/04 14:36:03;;;;;;;299.70;129.73;;;;;;;1.84;100.00;99266.09;4890928;29;20048;-80